Time;durP1;ratioP1;P1;durP2;ratioP2;P2;SDS_P1;SDS_P2;PMS_P1;PMS_P2;Temp;Humidity;BMP_temperature;BMP_pressure;BME280_temperature;BME280_humidity;BME280_pressure;Samples;Min_cycle;Max_cycle;Signal;HPM_P1;HPM_P2
2023/02/20 00:00:30;;;;;;;12.60;6.37;;;;;5.60;102139.00;;;;10009762;29;20209;-78
2023/02/20 00:05:33;;;;;;;11.03;6.13;;;;;5.60;102145.00;;;;10014290;29;20246;-78
2023/02/20 00:10:35;;;;;;;13.70;5.83;;;;;5.50;102153.00;;;;10022197;29;20220;-77
2023/02/20 00:15:37;;;;;;;12.03;5.87;;;;;5.50;102135.00;;;;10038994;29;20188;-78
2023/02/20 00:20:39;;;;;;;13.93;5.90;;;;;5.50;102145.00;;;;10022318;29;20205;-78
2023/02/20 00:25:41;;;;;;;11.17;5.20;;;;;5.60;102128.00;;;;10007822;29;20264;-78
2023/02/20 00:30:43;;;;;;;10.93;5.03;;;;;5.60;102116.00;;;;10015089;29;20245;-78
2023/02/20 00:35:47;;;;;;;10.93;3.97;;;;;5.60;102098.00;;;;10023214;29;20241;-78
2023/02/20 00:40:49;;;;;;;15.10;5.67;;;;;5.60;102097.00;;;;10006608;29;20212;-79
2023/02/20 00:45:51;;;;;;;10.50;4.33;;;;;5.80;102098.00;;;;10037745;29;20212;-79
2023/02/20 00:50:56;;;;;;;15.43;5.43;;;;;5.80;102086.00;;;;10038169;29;20197;-78
2023/02/20 00:55:58;;;;;;;10.80;5.23;;;;;5.80;102085.00;;;;10020708;29;20204;-79
2023/02/20 01:01:00;;;;;;;12.00;5.70;;;;;5.80;102068.00;;;;10025331;29;20395;-79
2023/02/20 01:06:02;;;;;;;12.53;6.23;;;;;5.70;102075.00;;;;10029442;29;20220;-78
2023/02/20 01:11:04;;;;;;;14.53;7.83;;;;;5.70;102059.00;;;;10015922;29;20205;-79
2023/02/20 01:16:07;;;;;;;14.10;8.33;;;;;5.60;102064.00;;;;10007106;29;20193;-78
2023/02/20 01:21:09;;;;;;;19.30;8.80;;;;;5.50;102061.00;;;;10022590;29;20189;-79
2023/02/20 01:26:11;;;;;;;18.13;9.87;;;;;5.40;102059.00;;;;10002032;29;20252;-78
2023/02/20 01:31:14;;;;;;;20.03;10.23;;;;;5.30;102062.00;;;;10027504;29;20202;-78
2023/02/20 01:36:16;;;;;;;23.00;10.97;;;;;5.30;102059.00;;;;10029721;29;20226;-78
2023/02/20 01:41:19;;;;;;;19.60;10.73;;;;;5.30;102057.00;;;;10035875;29;20298;-79
2023/02/20 01:46:46;;;;;;;24.93;11.33;;;;;5.30;102054.00;;;;10020676;29;20277;-78
2023/02/20 01:51:57;;;;;;;25.57;13.20;;;;;5.30;102061.00;;;;10027661;29;20882;-78
2023/02/20 01:57:02;;;;;;;32.83;13.13;;;;;5.50;102063.00;;;;10024048;29;20669;-78
2023/02/20 02:02:05;;;;;;;26.67;13.20;;;;;5.60;102060.00;;;;10032784;29;20202;-79
2023/02/20 02:07:07;;;;;;;26.30;13.77;;;;;5.60;102049.00;;;;10048877;29;20644;-78
2023/02/20 02:12:09;;;;;;;27.97;14.40;;;;;5.70;102058.00;;;;10026042;29;20300;-78
2023/02/20 02:17:38;;;;;;;40.17;15.13;;;;;5.70;102046.00;;;;10031983;29;20197;-78
2023/02/20 02:23:01;;;;;;;28.73;14.07;;;;;5.80;102036.00;;;;10048369;29;20207;-78
2023/02/20 02:28:25;;;;;;;30.37;13.37;;;;;5.90;102024.00;;;;10043663;29;20295;-78
2023/02/20 02:34:09;;;;;;;28.83;12.10;;;;;5.90;102004.00;;;;10030199;29;20290;-78
2023/02/20 02:39:22;;;;;;;24.87;10.90;;;;;5.80;102024.00;;;;10028157;29;20628;-78
2023/02/20 02:44:46;;;;;;;20.57;10.60;;;;;5.80;102012.00;;;;10013708;29;20216;-78
2023/02/20 02:50:00;;;;;;;30.03;11.07;;;;;5.80;102012.00;;;;10019502;29;20208;-78
2023/02/20 02:55:02;;;;;;;17.17;11.30;;;;;5.90;102015.00;;;;10056045;29;20249;-78
2023/02/20 03:00:23;;;;;;;19.03;9.90;;;;;5.90;102001.00;;;;10015029;29;20541;-78
2023/02/20 03:05:38;;;;;;;16.03;9.13;;;;;5.90;101997.00;;;;10018650;29;20756;-79
2023/02/20 03:10:43;;;;;;;22.93;9.97;;;;;5.90;102003.00;;;;10013871;29;20272;-78
2023/02/20 03:15:51;;;;;;;19.70;10.17;;;;;5.80;101996.00;;;;10013469;29;20296;-78
2023/02/20 03:20:57;;;;;;;19.50;8.77;;;;;5.80;101988.00;;;;10013494;29;20197;-78
2023/02/20 03:26:25;;;;;;;18.13;9.47;;;;;5.70;101996.00;;;;9990442;29;20225;-77
2023/02/20 03:31:39;;;;;;;20.53;10.00;;;;;5.70;101990.00;;;;10027670;29;20660;-78
2023/02/20 03:47:51;;;;;;;20.60;8.37;;;;;6.00;101975.00;;;;10026806;29;20232;-78
2023/02/20 03:52:56;;;;;;;17.53;8.17;;;;;6.10;101975.00;;;;10011334;29;20253;-78
2023/02/20 03:58:04;;;;;;;17.63;8.50;;;;;6.20;101964.00;;;;10023641;29;20208;-78
2023/02/20 04:03:14;;;;;;;12.70;6.77;;;;;6.30;101967.00;;;;10012263;29;20208;-78
2023/02/20 04:08:35;;;;;;;19.23;6.77;;;;;6.30;101951.00;;;;10041490;29;20216;-78
2023/02/20 04:13:39;;;;;;;14.70;7.37;;;;;6.40;101960.00;;;;10026539;29;20760;-78
2023/02/20 04:18:42;;;;;;;15.40;7.53;;;;;6.50;101954.00;;;;10027420;29;20212;-78
2023/02/20 04:23:48;;;;;;;17.43;6.50;;;;;6.50;101954.00;;;;10020406;29;20225;-77
2023/02/20 04:28:52;;;;;;;12.93;6.37;;;;;6.60;101955.00;;;;9990205;29;20226;-78
2023/02/20 04:33:54;;;;;;;13.80;5.57;;;;;6.60;101961.00;;;;10010077;29;20633;-79
2023/02/20 04:38:57;;;;;;;16.27;5.83;;;;;6.60;101964.00;;;;10025695;29;20260;-78
2023/02/20 04:49:25;;;;;;;13.50;6.47;;;;;6.70;101967.00;;;;10025745;29;20212;-78
2023/02/20 04:54:31;;;;;;;15.27;7.17;;;;;6.70;101975.00;;;;10024424;29;20208;-78
2023/02/20 04:59:34;;;;;;;14.93;6.93;;;;;6.80;101959.00;;;;10046268;29;20592;-78
2023/02/20 05:04:36;;;;;;;17.27;7.10;;;;;6.80;101960.00;;;;10000617;29;20225;-78
2023/02/20 05:09:42;;;;;;;19.97;5.90;;;;;6.90;101962.00;;;;10026263;29;20273;-77
2023/02/20 05:14:44;;;;;;;16.40;7.60;;;;;6.90;101957.00;;;;10023182;29;20212;-78
2023/02/20 05:19:46;;;;;;;18.40;6.87;;;;;6.90;101968.00;;;;10039484;29;20200;-78
2023/02/20 05:24:50;;;;;;;20.37;6.57;;;;;7.00;101966.00;;;;10037961;29;20716;-78
2023/02/20 05:29:54;;;;;;;15.40;6.13;;;;;7.00;101966.00;;;;10030355;29;20554;-78
2023/02/20 05:34:56;;;;;;;13.70;6.23;;;;;7.00;101961.00;;;;10035320;29;20237;-78
2023/02/20 05:39:58;;;;;;;12.57;5.83;;;;;6.90;101949.00;;;;10002396;29;20213;-78
2023/02/20 05:45:01;;;;;;;13.93;5.63;;;;;7.00;101957.00;;;;10023595;29;20208;-79
2023/02/20 05:50:03;;;;;;;17.03;5.87;;;;;7.00;101959.00;;;;10007966;29;20234;-78
2023/02/20 05:55:06;;;;;;;12.63;4.43;;;;;7.00;101960.00;;;;10025167;29;20225;-78
2023/02/20 06:00:09;;;;;;;9.97;4.70;;;;;7.00;101963.00;;;;10002519;29;20266;-78
2023/02/20 06:05:14;;;;;;;8.57;5.17;;;;;7.00;101965.00;;;;10016536;29;20291;-78
2023/02/20 06:10:17;;;;;;;12.70;4.47;;;;;7.00;101978.00;;;;10038043;29;20221;-78
2023/02/20 06:15:19;;;;;;;10.80;4.63;;;;;7.00;101978.00;;;;10022243;29;20201;-78
2023/02/20 06:20:21;;;;;;;19.53;5.30;;;;;7.00;101990.00;;;;10028839;29;20196;-78
2023/02/20 06:25:23;;;;;;;12.93;5.03;;;;;7.00;101990.00;;;;10044829;29;20229;-78
2023/02/20 06:30:25;;;;;;;10.73;4.93;;;;;7.00;101993.00;;;;10013762;29;20212;-78
2023/02/20 06:35:27;;;;;;;11.87;4.87;;;;;7.00;101999.00;;;;10022320;29;20193;-78
2023/02/20 06:40:29;;;;;;;17.07;5.57;;;;;7.00;102005.00;;;;10040268;29;20577;-78
2023/02/20 06:45:31;;;;;;;13.67;5.93;;;;;7.00;102007.00;;;;10029119;29;20205;-78
2023/02/20 06:50:33;;;;;;;14.83;7.17;;;;;7.00;102002.00;;;;10025059;29;20720;-78
2023/02/20 06:55:35;;;;;;;15.63;6.60;;;;;7.00;102000.00;;;;10036772;29;20209;-78
2023/02/20 07:00:37;;;;;;;15.77;7.03;;;;;7.00;102012.00;;;;10013691;29;20197;-78
2023/02/20 07:05:39;;;;;;;17.60;8.53;;;;;7.00;102019.00;;;;10024754;29;20212;-78
2023/02/20 07:10:41;;;;;;;20.33;8.40;;;;;7.10;102011.00;;;;10043459;29;20859;-78
2023/02/20 07:15:43;;;;;;;17.33;8.10;;;;;7.20;102017.00;;;;10066732;29;20201;-78
2023/02/20 07:20:44;;;;;;;17.70;7.23;;;;;7.20;102006.00;;;;10077902;29;20200;-78
2023/02/20 07:25:48;;;;;;;15.27;8.60;;;;;7.30;102019.00;;;;10019984;29;20236;-78
2023/02/20 07:30:50;;;;;;;11.77;6.63;;;;;7.30;102005.00;;;;10029128;29;20577;-78
2023/02/20 07:35:52;;;;;;;18.13;6.47;;;;;7.40;102002.00;;;;10014559;29;20254;-78
2023/02/20 07:40:54;;;;;;;15.13;7.17;;;;;7.40;102007.00;;;;10010236;29;20232;-78
2023/02/20 07:45:56;;;;;;;15.77;7.07;;;;;7.50;102005.00;;;;10027663;29;20231;-78
2023/02/20 07:50:58;;;;;;;12.67;6.07;;;;;7.60;102006.00;;;;10008768;29;20217;-78
2023/02/20 07:56:00;;;;;;;34.90;11.67;;;;;7.70;102012.00;;;;9996514;29;20224;-78
2023/02/20 08:01:02;;;;;;;12.73;6.17;;;;;7.80;102011.00;;;;10044721;29;20189;-79
2023/02/20 08:06:05;;;;;;;10.97;5.87;;;;;7.90;102025.00;;;;10028341;29;20260;-78
2023/02/20 08:11:07;;;;;;;18.53;7.23;;;;;7.90;102027.00;;;;9996964;29;20224;-79
2023/02/20 08:16:11;;;;;;;15.00;7.43;;;;;8.00;102029.00;;;;9988403;29;20275;-80
2023/02/20 08:21:13;;;;;;;17.27;6.93;;;;;8.00;102040.00;;;;9995461;29;20205;-78
2023/02/20 08:26:15;;;;;;;18.23;8.07;;;;;8.00;102034.00;;;;10033312;29;20245;-79
2023/02/20 08:31:18;;;;;;;16.13;6.93;;;;;8.10;102036.00;;;;9999694;29;20236;-79
2023/02/20 08:36:33;;;;;;;17.07;6.80;;;;;8.20;102029.00;;;;9987587;29;20235;-77
2023/02/20 08:41:43;;;;;;;11.97;6.97;;;;;8.30;102023.00;;;;9996469;29;20213;-77
2023/02/20 08:46:48;;;;;;;13.07;6.67;;;;;8.40;102024.00;;;;10047436;29;20204;-77
2023/02/20 08:51:54;;;;;;;13.43;7.30;;;;;8.50;102018.00;;;;10041433;29;20397;-78
2023/02/20 08:56:56;;;;;;;12.53;7.27;;;;;8.60;102015.00;;;;10007692;29;20537;-78
2023/02/20 09:01:58;;;;;;;20.73;8.83;;;;;8.60;102025.00;;;;9997591;29;20316;-78
2023/02/20 09:07:00;;;;;;;18.60;9.20;;;;;8.60;102014.00;;;;10010037;29;20213;-78
2023/02/20 09:12:03;;;;;;;16.83;8.47;;;;;8.70;102018.00;;;;10037044;29;20707;-78
2023/02/20 09:17:05;;;;;;;14.60;8.43;;;;;8.70;102012.00;;;;10040089;29;20309;-78
2023/02/20 09:22:07;;;;;;;18.07;8.27;;;;;8.80;102017.00;;;;10010973;29;20257;-78
2023/02/20 09:27:09;;;;;;;16.27;8.40;;;;;8.70;102015.00;;;;10016324;29;20225;-77
2023/02/20 09:32:11;;;;;;;20.30;8.13;;;;;8.70;102011.00;;;;10039797;29;20259;-77
2023/02/20 09:37:13;;;;;;;17.93;7.47;;;;;8.80;102008.00;;;;10029085;29;20197;-77
2023/02/20 09:42:39;;;;;;;18.00;8.53;;;;;8.90;102004.00;;;;10021278;29;20209;-77
2023/02/20 09:47:58;;;;;;;14.97;7.63;;;;;8.90;102013.00;;;;10018214;29;20232;-77
2023/02/20 09:53:24;;;;;;;20.77;8.30;;;;;9.00;102014.00;;;;10029174;29;20651;-79
2023/02/20 09:58:43;;;;;;;20.77;8.20;;;;;9.10;102006.00;;;;10012686;29;20197;-78
2023/02/20 10:03:53;;;;;;;16.30;8.13;;;;;9.30;101999.00;;;;10044749;29;20711;-78
2023/02/20 10:08:56;;;;;;;13.60;7.23;;;;;9.40;102004.00;;;;10042222;29;20213;-78
2023/02/20 10:14:18;;;;;;;13.03;6.13;;;;;9.40;102006.00;;;;10042647;29;20201;-78
2023/02/20 10:19:50;;;;;;;18.07;7.30;;;;;9.40;102001.00;;;;10039345;29;20199;-78
2023/02/20 10:25:34;;;;;;;15.50;7.83;;;;;9.60;101992.00;;;;10010777;29;20229;-78
2023/02/20 10:30:48;;;;;;;17.50;8.23;;;;;9.70;101990.00;;;;10035663;29;20244;-78
2023/02/20 10:36:02;;;;;;;11.87;7.00;;;;;9.90;101984.00;;;;10026634;29;20200;-78
2023/02/20 10:41:18;;;;;;;18.73;7.57;;;;;10.20;101981.00;;;;9998162;29;20201;-78
2023/02/20 10:46:41;;;;;;;14.80;8.07;;;;;10.30;101989.00;;;;10023408;29;20303;-78
2023/02/20 10:51:55;;;;;;;12.73;7.43;;;;;10.40;101980.00;;;;10022999;29;20269;-78
2023/02/20 10:57:01;;;;;;;18.90;7.33;;;;;10.50;101978.00;;;;10023950;29;20227;-78
2023/02/20 11:02:11;;;;;;;12.70;6.80;;;;;10.40;101967.00;;;;10005785;29;20209;-77
2023/02/20 11:07:17;;;;;;;13.90;8.03;;;;;10.40;101973.00;;;;10032451;29;20201;-77
2023/02/20 11:12:24;;;;;;;17.07;9.13;;;;;10.30;101994.00;;;;10028333;29;20204;-77
2023/02/20 11:17:28;;;;;;;12.27;6.50;;;;;10.10;101990.00;;;;10043311;29;20201;-77
2023/02/20 11:22:39;;;;;;;15.33;6.93;;;;;10.00;101998.00;;;;10009090;29;20893;-77
2023/02/20 11:27:42;;;;;;;11.90;5.73;;;;;9.90;101984.00;;;;10015747;29;20304;-77
2023/02/20 11:32:46;;;;;;;16.53;6.50;;;;;9.90;101976.00;;;;10036395;29;20683;-78
2023/02/20 11:38:10;;;;;;;11.93;6.63;;;;;9.90;101980.00;;;;10017335;29;20216;-78
2023/02/20 11:43:12;;;;;;;13.00;7.10;;;;;9.90;101976.00;;;;10005137;29;20214;-77
2023/02/20 11:48:16;;;;;;;14.37;7.37;;;;;9.90;101968.00;;;;10012646;29;20213;-77
2023/02/20 11:53:25;;;;;;;15.93;6.57;;;;;10.00;101945.00;;;;10014704;29;20245;-77
2023/02/20 11:58:28;;;;;;;9.57;5.87;;;;;10.20;101945.00;;;;10017719;29;20197;-78
2023/02/20 12:03:33;;;;;;;10.50;6.07;;;;;10.30;101942.00;;;;10011804;29;20194;-78
2023/02/20 12:08:55;;;;;;;19.57;6.73;;;;;10.30;101942.00;;;;10050715;29;20774;-78
2023/02/20 12:13:59;;;;;;;13.40;6.03;;;;;10.30;101938.00;;;;10020642;29;20250;-77
2023/02/20 12:19:23;;;;;;;15.13;6.13;;;;;10.30;101924.00;;;;10005011;29;20193;-77
2023/02/20 12:25:08;;;;;;;12.40;6.20;;;;;10.50;101916.00;;;;9998217;29;20221;-77
2023/02/20 12:30:42;;;;;;;13.63;7.00;;;;;10.60;101902.00;;;;9895638;30;20272;-77
2023/02/20 12:36:22;;;;;;;13.77;7.47;;;;;10.80;101899.00;;;;10012492;29;20215;-77
2023/02/20 12:41:31;;;;;;;16.13;10.17;;;;;10.70;101896.00;;;;9984991;29;20227;-77
2023/02/20 12:46:43;;;;;;;16.00;8.37;;;;;10.80;101891.00;;;;10064147;29;20231;-77
2023/02/20 12:51:48;;;;;;;12.17;7.90;;;;;10.80;101894.00;;;;10056107;29;20676;-77
2023/02/20 12:57:04;;;;;;;14.00;8.00;;;;;10.70;101890.00;;;;10047588;29;20217;-77
2023/02/20 13:02:34;;;;;;;18.13;14.93;;;;;10.50;101898.00;;;;10036817;29;20196;-77
2023/02/20 13:07:52;;;;;;;13.90;8.13;;;;;10.60;101887.00;;;;10012588;29;20231;-77
2023/02/20 13:12:54;;;;;;;10.63;6.37;;;;;10.60;101883.00;;;;10000437;29;20208;-77
2023/02/20 13:18:16;;;;;;;12.40;8.07;;;;;10.60;101874.00;;;;10033646;29;20250;-77
2023/02/20 13:23:18;;;;;;;13.57;7.10;;;;;10.60;101865.00;;;;10011616;29;20561;-77
2023/02/20 13:28:24;;;;;;;11.87;6.70;;;;;10.50;101856.00;;;;10050905;29;20681;-77
2023/02/20 13:33:28;;;;;;;19.23;8.73;;;;;10.50;101858.00;;;;10029579;29;20203;-77
2023/02/20 13:38:30;;;;;;;16.80;8.83;;;;;10.40;101869.00;;;;10028399;29;20201;-77
2023/02/20 13:43:33;;;;;;;13.37;8.33;;;;;10.30;101844.00;;;;10004820;29;20662;-77
2023/02/20 13:48:36;;;;;;;12.43;7.90;;;;;10.30;101840.00;;;;10005897;29;20213;-77
2023/02/20 13:53:38;;;;;;;13.23;7.87;;;;;10.20;101839.00;;;;10043921;29;20199;-77
2023/02/20 13:58:40;;;;;;;12.90;7.37;;;;;10.10;101834.00;;;;10040443;29;20193;-77
2023/02/20 14:03:42;;;;;;;11.40;7.40;;;;;10.10;101827.00;;;;10042998;29;20602;-77
2023/02/20 14:08:47;;;;;;;12.93;7.00;;;;;10.00;101828.00;;;;10037509;29;20209;-77
2023/02/20 14:13:49;;;;;;;15.00;8.00;;;;;10.00;101817.00;;;;10049945;29;20223;-77
2023/02/20 14:18:56;;;;;;;15.00;7.83;;;;;10.00;101804.00;;;;10095861;29;20280;-77
2023/02/20 14:24:12;;;;;;;18.37;11.23;;;;;10.10;101782.00;;;;10038370;29;20224;-77
2023/02/20 14:29:25;;;;;;;16.47;8.50;;;;;10.30;101780.00;;;;10054490;29;20904;-77
2023/02/20 14:34:33;;;;;;;13.47;7.17;;;;;10.30;101784.00;;;;10055729;29;20197;-77
2023/02/20 14:40:00;;;;;;;10.93;7.10;;;;;10.30;101779.00;;;;10033780;29;20204;-77
2023/02/20 14:45:07;;;;;;;10.97;7.30;;;;;10.30;101767.00;;;;10000891;29;20209;-78
2023/02/20 14:50:21;;;;;;;12.07;8.03;;;;;10.30;101758.00;;;;10032637;29;20268;-77
2023/02/20 14:55:24;;;;;;;13.10;7.23;;;;;10.40;101742.00;;;;10045555;29;20210;-77
2023/02/20 15:00:38;;;;;;;12.70;7.67;;;;;10.30;101733.00;;;;10056963;29;20193;-77
2023/02/20 15:05:41;;;;;;;12.13;6.43;;;;;10.40;101739.00;;;;10042969;29;20207;-77
2023/02/20 15:10:47;;;;;;;9.60;6.30;;;;;10.20;101746.00;;;;10053262;29;20209;-77
2023/02/20 15:15:52;;;;;;;15.87;7.40;;;;;10.10;101743.00;;;;10029314;29;20280;-77
2023/02/20 15:20:53;;;;;;;9.23;6.13;;;;;10.10;101736.00;;;;10027174;29;20879;-77
2023/02/20 15:25:56;;;;;;;10.83;6.23;;;;;10.00;101707.00;;;;10024963;29;20812;-77
2023/02/20 15:30:59;;;;;;;11.43;6.50;;;;;10.00;101734.00;;;;10049962;29;20208;-77
2023/02/20 15:36:03;;;;;;;9.83;5.53;;;;;9.90;101741.00;;;;10024238;29;20197;-77
2023/02/20 15:41:06;;;;;;;13.57;5.93;;;;;9.80;101743.00;;;;10051001;29;20560;-77
2023/02/20 15:46:08;;;;;;;13.23;6.03;;;;;9.80;101744.00;;;;10061949;29;20203;-77
2023/02/20 15:51:13;;;;;;;11.07;5.87;;;;;9.70;101744.00;;;;10005545;29;20213;-77
2023/02/20 15:56:16;;;;;;;11.13;6.17;;;;;9.60;101736.00;;;;10037596;29;20203;-77
2023/02/20 16:01:19;;;;;;;8.23;5.53;;;;;9.60;101741.00;;;;10011127;29;20205;-77
2023/02/20 16:06:22;;;;;;;10.10;5.67;;;;;9.60;101724.00;;;;10030717;29;20198;-77
2023/02/20 16:11:28;;;;;;;9.00;6.03;;;;;9.50;101734.00;;;;10030887;29;20764;-77
2023/02/20 16:16:33;;;;;;;12.13;6.37;;;;;9.50;101732.00;;;;10014212;29;20280;-77
2023/02/20 16:21:36;;;;;;;7.93;5.57;;;;;9.40;101721.00;;;;10013885;29;20212;-77
2023/02/20 16:26:45;;;;;;;10.47;6.40;;;;;9.40;101713.00;;;;10024967;29;20227;-77
2023/02/20 16:31:53;;;;;;;12.70;6.97;;;;;9.30;101726.00;;;;9996967;29;20241;-77
2023/02/20 16:36:55;;;;;;;8.90;6.73;;;;;9.20;101731.00;;;;10048913;29;20618;-77
2023/02/20 16:41:58;;;;;;;9.07;5.80;;;;;9.20;101728.00;;;;10020692;29;20756;-77
2023/02/20 16:47:00;;;;;;;13.83;6.50;;;;;9.10;101709.00;;;;10034467;29;20265;-77
2023/02/20 16:52:08;;;;;;;10.47;7.10;;;;;9.10;101713.00;;;;10069794;29;20227;-77
2023/02/20 16:57:10;;;;;;;13.03;7.67;;;;;9.00;101705.00;;;;10053162;29;20652;-77
2023/02/20 17:02:18;;;;;;;14.23;9.27;;;;;9.00;101719.00;;;;10048285;29;20657;-77
2023/02/20 17:07:20;;;;;;;15.63;8.20;;;;;9.00;101729.00;;;;10035028;29;20728;-77
2023/02/20 17:12:23;;;;;;;12.63;7.90;;;;;9.00;101729.00;;;;10035396;29;20205;-77
2023/02/20 17:17:25;;;;;;;12.37;7.77;;;;;9.00;101723.00;;;;9990521;29;20229;-77
2023/02/20 17:22:28;;;;;;;13.93;7.90;;;;;8.90;101731.00;;;;10025483;29;20702;-77
2023/02/20 17:27:30;;;;;;;13.97;7.77;;;;;8.90;101732.00;;;;10034759;29;20233;-77
2023/02/20 17:32:32;;;;;;;12.57;7.23;;;;;8.90;101727.00;;;;10020107;29;20209;-77
2023/02/20 17:37:34;;;;;;;17.37;8.20;;;;;8.90;101741.00;;;;10014410;29;20458;-77
2023/02/20 17:42:36;;;;;;;26.10;13.40;;;;;8.90;101729.00;;;;10032536;29;20197;-77
2023/02/20 17:47:38;;;;;;;14.43;9.73;;;;;8.80;101726.00;;;;10033717;29;20618;-77
2023/02/20 17:52:43;;;;;;;11.53;8.67;;;;;8.80;101739.00;;;;10034363;29;20703;-77
2023/02/20 17:57:45;;;;;;;10.30;7.73;;;;;8.80;101727.00;;;;10023599;29;20691;-76
2023/02/20 18:02:47;;;;;;;11.47;7.87;;;;;8.80;101731.00;;;;10032924;29;20197;-77
2023/02/20 18:07:49;;;;;;;13.97;8.57;;;;;8.80;101725.00;;;;10001219;29;20201;-77
2023/02/20 18:13:03;;;;;;;12.07;8.30;;;;;8.80;101728.00;;;;10021253;29;20221;-77
2023/02/20 18:18:05;;;;;;;14.23;9.17;;;;;8.80;101729.00;;;;10000644;29;20193;-77
2023/02/20 18:23:08;;;;;;;12.97;8.33;;;;;8.70;101725.00;;;;10044887;29;20219;-77
2023/02/20 18:28:10;;;;;;;11.73;8.57;;;;;8.70;101731.00;;;;10010056;29;20231;-77
2023/02/20 18:33:12;;;;;;;14.87;9.50;;;;;8.70;101733.00;;;;10022324;29;20258;-77
2023/02/20 18:38:14;;;;;;;14.13;9.67;;;;;8.70;101724.00;;;;10005082;29;20229;-77
2023/02/20 18:43:16;;;;;;;15.17;9.30;;;;;8.60;101718.00;;;;9993636;29;20238;-77
2023/02/20 18:48:18;;;;;;;13.17;8.50;;;;;8.60;101722.00;;;;10055277;29;20692;-77
2023/02/20 18:53:20;;;;;;;14.53;9.47;;;;;8.60;101731.00;;;;10032159;29;20667;-77
2023/02/20 18:58:26;;;;;;;13.87;9.97;;;;;8.60;101705.00;;;;10022102;29;20261;-77
2023/02/20 19:03:28;;;;;;;13.23;8.90;;;;;8.60;101712.00;;;;10027866;29;20196;-77
2023/02/20 19:08:30;;;;;;;13.70;9.40;;;;;8.50;101727.00;;;;10049459;29;20252;-77
2023/02/20 19:13:32;;;;;;;14.83;9.37;;;;;8.50;101730.00;;;;10050555;29;20217;-77
2023/02/20 19:18:33;;;;;;;15.20;9.63;;;;;8.50;101726.00;;;;10048421;29;20201;-77
2023/02/20 19:23:47;;;;;;;19.07;11.00;;;;;8.50;101721.00;;;;10012638;29;20336;-77
2023/02/20 19:28:50;;;;;;;19.57;10.37;;;;;8.50;101707.00;;;;10021407;29;20588;-77
2023/02/20 19:33:52;;;;;;;16.97;9.70;;;;;8.40;101709.00;;;;10004781;29;20205;-77
2023/02/20 19:38:54;;;;;;;13.87;9.87;;;;;8.40;101701.00;;;;10027266;29;20777;-77
2023/02/20 19:43:56;;;;;;;15.30;10.53;;;;;8.40;101711.00;;;;10030486;29;20202;-77
2023/02/20 19:48:58;;;;;;;18.57;11.33;;;;;8.30;101706.00;;;;10033408;29;20217;-77
2023/02/20 19:54:00;;;;;;;15.33;9.17;;;;;8.30;101692.00;;;;10022957;29;20205;-77
2023/02/20 19:59:02;;;;;;;17.27;10.40;;;;;8.30;101698.00;;;;10022587;29;20522;-77
2023/02/20 20:04:04;;;;;;;20.87;11.30;;;;;8.30;101718.00;;;;10020361;29;20261;-77
2023/02/20 20:09:06;;;;;;;19.57;11.50;;;;;8.30;101708.00;;;;10003622;29;20565;-77
2023/02/20 20:14:19;;;;;;;20.57;11.57;;;;;8.20;101714.00;;;;10016876;29;20197;-77
2023/02/20 20:19:21;;;;;;;22.07;12.27;;;;;8.10;101716.00;;;;10010201;29;20193;-77
2023/02/20 20:24:22;;;;;;;19.00;11.37;;;;;8.10;101718.00;;;;10004533;29;20220;-77
2023/02/20 20:29:24;;;;;;;22.37;13.23;;;;;8.00;101710.00;;;;10030390;29;20631;-77
2023/02/20 20:34:26;;;;;;;26.70;14.37;;;;;8.00;101704.00;;;;10025944;29;20249;-77
2023/02/20 20:39:29;;;;;;;30.00;17.10;;;;;7.90;101727.00;;;;10015027;29;20257;-77
2023/02/20 20:44:31;;;;;;;29.07;17.23;;;;;7.90;101710.00;;;;9987459;29;20185;-77
2023/02/20 20:49:33;;;;;;;27.40;16.30;;;;;7.90;101704.00;;;;10004789;29;20212;-77
2023/02/20 20:54:35;;;;;;;35.60;17.97;;;;;7.90;101713.00;;;;10044400;29;20197;-77
2023/02/20 20:59:39;;;;;;;37.50;19.97;;;;;7.80;101719.00;;;;10036025;29;20234;-77
2023/02/20 21:04:43;;;;;;;40.73;20.13;;;;;7.90;101714.00;;;;9999511;29;20197;-77
2023/02/20 21:09:45;;;;;;;24.67;14.20;;;;;7.90;101710.00;;;;10035294;29;20223;-76
2023/02/20 21:14:47;;;;;;;25.87;14.73;;;;;7.90;101709.00;;;;10032396;29;20197;-77
2023/02/20 21:19:49;;;;;;;24.00;13.93;;;;;7.90;101702.00;;;;10004095;29;20196;-77
2023/02/20 21:24:51;;;;;;;32.67;19.10;;;;;7.80;101707.00;;;;10032475;29;20273;-77
2023/02/20 21:29:53;;;;;;;34.17;18.40;;;;;7.80;101712.00;;;;10024992;29;20300;-77
2023/02/20 21:34:55;;;;;;;38.57;18.60;;;;;7.80;101713.00;;;;10018837;29;20190;-77
2023/02/20 21:39:57;;;;;;;33.93;19.03;;;;;7.80;101706.00;;;;10020003;29;20198;-76
2023/02/20 21:44:59;;;;;;;36.43;18.83;;;;;7.80;101705.00;;;;10012929;29;20707;-77
2023/02/20 21:50:05;;;;;;;28.00;15.23;;;;;7.70;101696.00;;;;10020913;29;20735;-77
2023/02/20 21:55:11;;;;;;;29.13;15.73;;;;;7.70;101697.00;;;;9997172;29;20285;-76
